Terminal Aerodrome Forecast
Issued by NWS Caribou, ME

Home | Current Version | Previous Version | Text Only | Print | Product List | Glossary On
Versions: 1 2 3 4 5 6 7 8 9 10 11 12 13 14 15 16 17 18 19 20 21 22
000
FTUS41 KCAR 012348
TAFBGR
TAF
KBGR 012348Z 0200/0224 16007KT P6SM OVC007
     FM020300 19006KT 3SM BR BKN002
     FM020700 23007KT P6SM SCT003
     FM021100 25010G20KT P6SM SKC
     FM021700 22010G20KT P6SM SCT045=

USA.gov is the U.S. government's official web portal to all federal, state and local government web resources and services.